Alpine Link — V7SZ7 — position and weather

sailwx.info

Track history (hours):
 
Tides and Currents Weather Stations Pressure Air Temp Water Temp Dewpoint Dewpoint Depression Visibility Wind Speed Wind Dir Waves Ship Positions

Alpine Link

Last reported at 2014-Jul-31 22:07 UTC. Time now 2014-Aug-01 03:46 UTC.
Position N 41°00' E 028°60'.

Length 183 m; draft 7.5 m.

Type: Tanker. MMSI: 538003758.

Date/timePositionNaut miles runAvg speedWind from/ knotsBaromVisibWave heightAir tempDewpointWater temp
2014-Jul-31 22:07N 41°00' E 028°60'5 8.1
2014-Jul-31 21:33N 40°56' E 028°58'10 9.6
2014-Jul-31 20:33N 40°49' E 028°49'6 6.1
2014-Jul-31 19:33N 40°44' E 028°44'2 1.5
2014-Jul-31 18:32N 40°45' E 028°46'1 1.4
2014-Jul-31 17:33N 40°46' E 028°47'1 1.2
2014-Jul-31 16:29N 40°47' E 028°49'4 1.7
2014-Jul-31 14:15N 40°48' E 028°44'1 0.9
2014-Jul-31 13:31N 40°48' E 028°45'1 1.0
2014-Jul-31 12:32N 40°48' E 028°46'1 1.1
2014-Jul-31 11:33N 40°48' E 028°47'1 1.1
2014-Jul-31 10:33N 40°48' E 028°49'1 1.1
2014-Jul-31 09:33N 40°48' E 028°50'1 1.0
2014-Jul-31 08:32N 40°48' E 028°51'1 1.1
2014-Jul-31 07:33N 40°49' E 028°52'66 7.9
2014-Jul-30 23:08N 40°39' E 027°26'2613.0
2014-Jul-30 21:09N 40°29' E 026°55'812.7
2014-Jul-30 20:33N 40°26' E 026°45'4610.2
2014-Jul-30 16:03N 39°56' E 025°59'5 9.1
2014-Jul-30 15:30N 39°52' E 025°56'1 0.2
2014-Jul-30 09:13N 39°51' E 025°54'0 0.1
2014-Jul-30 07:32N 39°51' E 025°54'8 8.6
2014-Jul-30 06:33N 39°45' E 025°46'1413.5
2014-Jul-30 05:33N 39°33' E 025°37'7413.5
2014-Jul-30 00:04N 38°27' E 024°56'3613.7
2014-Jul-29 21:25N 37°54' E 024°37'1214.2
2014-Jul-29 20:33N 37°42' E 024°31'1614.0
2014-Jul-29 19:22N 37°28' E 024°21'1513.7
2014-Jul-29 18:18N 37°16' E 024°10'1013.8
2014-Jul-29 17:33N 37°08' E 024°03'1614.0
2014-Jul-29 16:25N 36°55' E 023°52'1214.0
2014-Jul-29 15:34N 36°45' E 023°43'1414.0
2014-Jul-29 14:33N 36°33' E 023°34'1514.6
2014-Jul-29 13:33N 36°21' E 023°23'1413.8
2014-Jul-29 12:31N 36°09' E 023°14'1313.3
2014-Jul-29 11:33N 36°01' E 023°01'37314.2
2014-Jul-28 09:17N 36°26' E 015°20'1014.3
2014-Jul-28 08:33N 36°27' E 015°07'1414.2
2014-Jul-28 07:33N 36°28' E 014°49'1414.2
2014-Jul-28 06:33N 36°29' E 014°31'1413.8
2014-Jul-28 05:33N 36°32' E 014°15'1413.7
2014-Jul-28 04:33N 36°36' E 013°58'1413.8
2014-Jul-28 03:34N 36°39' E 013°42'1413.8
2014-Jul-28 02:34N 36°42' E 013°25'1413.6
2014-Jul-28 01:34N 36°46' E 013°09'1414.0
2014-Jul-28 00:33N 36°49' E 012°52'3414.5
2014-Jul-27 22:14N 36°58' E 012°11'8314.3
2014-Jul-27 16:26N 37°29' E 010°34'1314.6
2014-Jul-27 15:33N 37°33' E 010°19'5914.7
2014-Jul-27 11:33N 37°37' E 009°05'12814.2
2014-Jul-27 02:33N 37°36' E 006°24'1313.3
2014-Jul-27 01:33N 37°36' E 006°07'1313.1
2014-Jul-27 00:33N 37°36' E 005°50'1313.4
2014-Jul-26 23:33N 37°36' E 005°33'1413.5
2014-Jul-26 22:33N 37°36' E 005°16'1413.6
2014-Jul-26 21:33N 37°36' E 004°59'2913.5
2014-Jul-26 19:24N 37°30' E 004°23'4113.4
2014-Jul-26 16:22N 37°20' E 003°33'1114.3
2014-Jul-26 15:33N 37°18' E 003°19'1414.3
2014-Jul-26 14:33N 37°15' E 003°02'1414.2
2014-Jul-26 13:33N 37°12' E 002°44'18414.1
2014-Jul-26 00:33N 36°31' W 000°59'1613.8
2014-Jul-25 23:26N 36°27' W 001°18'2713.5
2014-Jul-25 21:26N 36°22' W 001°51'1313.8
2014-Jul-25 20:30N 36°18' W 002°06'1913.8
2014-Jul-25 19:09N 36°17' W 002°29'13812.6
2014-Jul-25 08:12N 36°00' W 005°19'65 1.6
2014-Jul-23 15:22N 35°56' W 006°39'1113.9
2014-Jul-23 14:33N 35°59' W 006°53'1313.3
2014-Jul-23 13:33N 36°02' W 007°09'1212.2
2014-Jul-23 12:33N 36°04' W 007°23'8 7.6
2014-Jul-23 11:34N 36°07' W 007°32'1414.1
2014-Jul-23 10:33N 36°11' W 007°49'1413.9
2014-Jul-23 09:33N 36°14' W 008°05'1414.1
2014-Jul-23 08:33N 36°18' W 008°22'1313.3
2014-Jul-23 07:33N 36°21' W 008°38'1313.3
2014-Jul-23 06:33N 36°25' W 008°54'1312.7
2014-Jul-23 05:33N 36°28' W 009°10'1412.5
2014-Jul-23 04:27N 36°34' W 009°25'1213.1
2014-Jul-23 03:33N 36°43' W 009°35'1312.6
2014-Jul-23 02:31N 36°55' W 009°41'1313.0
2014-Jul-23 01:33N 37°07' W 009°44'1313.0
2014-Jul-23 00:33N 37°19' W 009°49'1313.1
2014-Jul-22 23:33N 37°32' W 009°52'1313.1
2014-Jul-22 22:33N 37°45' W 009°56'1313.4
2014-Jul-22 21:33N 37°58' W 009°60'1313.4
2014-Jul-22 20:33N 38°11' W 010°03'1313.4
2014-Jul-22 19:33N 38°24' W 010°07'1313.2
2014-Jul-22 18:33N 38°37' W 010°11'1313.6
2014-Jul-22 17:33N 38°51' W 010°12'1513.5
2014-Jul-22 16:27N 39°05' W 010°12'1213.7
2014-Jul-22 15:32N 39°18' W 010°12'1413.7
2014-Jul-22 14:32N 39°32' W 010°12'1413.8
2014-Jul-22 13:30N 39°46' W 010°12'2713.6
2014-Jul-22 11:32N 40°13' W 010°12'  
Track history (hours):
 
Tides and Currents Weather Stations Pressure Air Temp Water Temp Dewpoint Dewpoint Depression Visibility Wind Speed Wind Dir Waves Ship Positions

Alpine Link

Last reported at 2014-Jul-31 22:07 UTC. Time now 2014-Aug-01 03:46 UTC.
Position N 41°00' E 028°60'.

Length 183 m; draft 7.5 m.

Type: Tanker. MMSI: 538003758.

Date/timePositionNaut miles runAvg speedWind from/ knotsBaromVisibWave heightAir tempDewpointWater temp
2014-Jul-31 22:07N 41°00' E 028°60'5 8.1
2014-Jul-31 21:33N 40°56' E 028°58'10 9.6
2014-Jul-31 20:33N 40°49' E 028°49'6 6.1
2014-Jul-31 19:33N 40°44' E 028°44'2 1.5
2014-Jul-31 18:32N 40°45' E 028°46'1 1.4
2014-Jul-31 17:33N 40°46' E 028°47'1 1.2
2014-Jul-31 16:29N 40°47' E 028°49'4 1.7
2014-Jul-31 14:15N 40°48' E 028°44'1 0.9
2014-Jul-31 13:31N 40°48' E 028°45'1 1.0
2014-Jul-31 12:32N 40°48' E 028°46'1 1.1
2014-Jul-31 11:33N 40°48' E 028°47'1 1.1
2014-Jul-31 10:33N 40°48' E 028°49'1 1.1
2014-Jul-31 09:33N 40°48' E 028°50'1 1.0
2014-Jul-31 08:32N 40°48' E 028°51'1 1.1
2014-Jul-31 07:33N 40°49' E 028°52'66 7.9
2014-Jul-30 23:08N 40°39' E 027°26'2613.0
2014-Jul-30 21:09N 40°29' E 026°55'812.7
2014-Jul-30 20:33N 40°26' E 026°45'4610.2
2014-Jul-30 16:03N 39°56' E 025°59'5 9.1
2014-Jul-30 15:30N 39°52' E 025°56'1 0.2
2014-Jul-30 09:13N 39°51' E 025°54'0 0.1
2014-Jul-30 07:32N 39°51' E 025°54'8 8.6
2014-Jul-30 06:33N 39°45' E 025°46'1413.5
2014-Jul-30 05:33N 39°33' E 025°37'7413.5
2014-Jul-30 00:04N 38°27' E 024°56'3613.7
2014-Jul-29 21:25N 37°54' E 024°37'1214.2
2014-Jul-29 20:33N 37°42' E 024°31'1614.0
2014-Jul-29 19:22N 37°28' E 024°21'1513.7
2014-Jul-29 18:18N 37°16' E 024°10'1013.8
2014-Jul-29 17:33N 37°08' E 024°03'1614.0
2014-Jul-29 16:25N 36°55' E 023°52'1214.0
2014-Jul-29 15:34N 36°45' E 023°43'1414.0
2014-Jul-29 14:33N 36°33' E 023°34'1514.6
2014-Jul-29 13:33N 36°21' E 023°23'1413.8
2014-Jul-29 12:31N 36°09' E 023°14'1313.3
2014-Jul-29 11:33N 36°01' E 023°01'37314.2
2014-Jul-28 09:17N 36°26' E 015°20'1014.3
2014-Jul-28 08:33N 36°27' E 015°07'1414.2
2014-Jul-28 07:33N 36°28' E 014°49'1414.2
2014-Jul-28 06:33N 36°29' E 014°31'1413.8
2014-Jul-28 05:33N 36°32' E 014°15'1413.7
2014-Jul-28 04:33N 36°36' E 013°58'1413.8
2014-Jul-28 03:34N 36°39' E 013°42'1413.8
2014-Jul-28 02:34N 36°42' E 013°25'1413.6
2014-Jul-28 01:34N 36°46' E 013°09'1414.0
2014-Jul-28 00:33N 36°49' E 012°52'3414.5
2014-Jul-27 22:14N 36°58' E 012°11'8314.3
2014-Jul-27 16:26N 37°29' E 010°34'1314.6
2014-Jul-27 15:33N 37°33' E 010°19'5914.7
2014-Jul-27 11:33N 37°37' E 009°05'12814.2
2014-Jul-27 02:33N 37°36' E 006°24'1313.3
2014-Jul-27 01:33N 37°36' E 006°07'1313.1
2014-Jul-27 00:33N 37°36' E 005°50'1313.4
2014-Jul-26 23:33N 37°36' E 005°33'1413.5
2014-Jul-26 22:33N 37°36' E 005°16'1413.6
2014-Jul-26 21:33N 37°36' E 004°59'2913.5
2014-Jul-26 19:24N 37°30' E 004°23'4113.4
2014-Jul-26 16:22N 37°20' E 003°33'1114.3
2014-Jul-26 15:33N 37°18' E 003°19'1414.3
2014-Jul-26 14:33N 37°15' E 003°02'1414.2
2014-Jul-26 13:33N 37°12' E 002°44'18414.1
2014-Jul-26 00:33N 36°31' W 000°59'1613.8
2014-Jul-25 23:26N 36°27' W 001°18'2713.5
2014-Jul-25 21:26N 36°22' W 001°51'1313.8
2014-Jul-25 20:30N 36°18' W 002°06'1913.8
2014-Jul-25 19:09N 36°17' W 002°29'13812.6
2014-Jul-25 08:12N 36°00' W 005°19'65 1.6
2014-Jul-23 15:22N 35°56' W 006°39'1113.9
2014-Jul-23 14:33N 35°59' W 006°53'1313.3
2014-Jul-23 13:33N 36°02' W 007°09'1212.2
2014-Jul-23 12:33N 36°04' W 007°23'8 7.6
2014-Jul-23 11:34N 36°07' W 007°32'1414.1
2014-Jul-23 10:33N 36°11' W 007°49'1413.9
2014-Jul-23 09:33N 36°14' W 008°05'1414.1
2014-Jul-23 08:33N 36°18' W 008°22'1313.3
2014-Jul-23 07:33N 36°21' W 008°38'1313.3
2014-Jul-23 06:33N 36°25' W 008°54'1312.7
2014-Jul-23 05:33N 36°28' W 009°10'1412.5
2014-Jul-23 04:27N 36°34' W 009°25'1213.1
2014-Jul-23 03:33N 36°43' W 009°35'1312.6
2014-Jul-23 02:31N 36°55' W 009°41'1313.0
2014-Jul-23 01:33N 37°07' W 009°44'1313.0
2014-Jul-23 00:33N 37°19' W 009°49'1313.1
2014-Jul-22 23:33N 37°32' W 009°52'1313.1
2014-Jul-22 22:33N 37°45' W 009°56'1313.4
2014-Jul-22 21:33N 37°58' W 009°60'1313.4
2014-Jul-22 20:33N 38°11' W 010°03'1313.4
2014-Jul-22 19:33N 38°24' W 010°07'1313.2
2014-Jul-22 18:33N 38°37' W 010°11'1313.6
2014-Jul-22 17:33N 38°51' W 010°12'1513.5
2014-Jul-22 16:27N 39°05' W 010°12'1213.7
2014-Jul-22 15:32N 39°18' W 010°12'1413.7
2014-Jul-22 14:32N 39°32' W 010°12'1413.8
2014-Jul-22 13:30N 39°46' W 010°12'2713.6
2014-Jul-22 11:32N 40°13' W 010°12'  

Dump ship's entire track history